TAF Text Data
IDs:
Format:
Raw Decoded Include METAR

Data at: 1129 UTC 23 Jun 2021

KMHT 231120Z 2312/2412 VRB03KT P6SM FEW250
  FM231500 29008G15KT P6SM FEW250
  FM240000 VRB03KT P6SM SKC